sensor_id;sensor_type;location;lat;lon;timestamp;P1;durP1;ratioP1;P2;durP2;ratioP2
70052;SDS011;57398;52.032;4.376;2023-02-28T00:01:51;7.60;;;2.80;;
70052;SDS011;57398;52.032;4.376;2023-02-28T00:04:39;6.55;;;3.00;;
70052;SDS011;57398;52.032;4.376;2023-02-28T00:07:28;7.40;;;2.72;;
70052;SDS011;57398;52.032;4.376;2023-02-28T00:13:07;7.68;;;3.00;;
70052;SDS011;57398;52.032;4.376;2023-02-28T00:16:02;6.30;;;2.70;;
70052;SDS011;57398;52.032;4.376;2023-02-28T00:18:54;7.35;;;3.15;;
70052;SDS011;57398;52.032;4.376;2023-02-28T00:21:42;8.13;;;2.42;;
70052;SDS011;57398;52.032;4.376;2023-02-28T00:24:30;5.33;;;2.73;;
70052;SDS011;57398;52.032;4.376;2023-02-28T00:27:18;6.90;;;2.83;;
70052;SDS011;57398;52.032;4.376;2023-02-28T00:30:07;5.88;;;2.38;;
70052;SDS011;57398;52.032;4.376;2023-02-28T00:32:59;8.73;;;2.72;;
70052;SDS011;57398;52.032;4.376;2023-02-28T00:35:47;6.07;;;2.75;;
70052;SDS011;57398;52.032;4.376;2023-02-28T00:38:35;5.67;;;2.50;;
70052;SDS011;57398;52.032;4.376;2023-02-28T00:41:23;6.22;;;2.33;;
70052;SDS011;57398;52.032;4.376;2023-02-28T00:44:11;7.50;;;2.50;;
70052;SDS011;57398;52.032;4.376;2023-02-28T00:46:59;7.03;;;2.58;;
70052;SDS011;57398;52.032;4.376;2023-02-28T00:49:49;6.45;;;2.80;;
70052;SDS011;57398;52.032;4.376;2023-02-28T00:52:37;7.33;;;2.77;;
70052;SDS011;57398;52.032;4.376;2023-02-28T00:55:25;6.45;;;3.20;;
70052;SDS011;57398;52.032;4.376;2023-02-28T00:58:13;9.07;;;3.28;;
70052;SDS011;57398;52.032;4.376;2023-02-28T01:01:01;7.55;;;2.75;;
70052;SDS011;57398;52.032;4.376;2023-02-28T01:03:50;6.75;;;2.65;;
70052;SDS011;57398;52.032;4.376;2023-02-28T01:06:40;6.70;;;2.47;;
70052;SDS011;57398;52.032;4.376;2023-02-28T01:09:29;5.78;;;3.05;;
70052;SDS011;57398;52.032;4.376;2023-02-28T01:12:17;7.72;;;3.30;;
70052;SDS011;57398;52.032;4.376;2023-02-28T01:15:05;7.32;;;2.83;;
70052;SDS011;57398;52.032;4.376;2023-02-28T01:17:54;8.20;;;3.03;;
70052;SDS011;57398;52.032;4.376;2023-02-28T01:20:42;6.90;;;3.00;;
70052;SDS011;57398;52.032;4.376;2023-02-28T01:23:32;6.82;;;3.30;;
70052;SDS011;57398;52.032;4.376;2023-02-28T01:26:21;7.38;;;3.30;;
70052;SDS011;57398;52.032;4.376;2023-02-28T01:29:10;9.27;;;3.17;;
70052;SDS011;57398;52.032;4.376;2023-02-28T01:31:58;7.10;;;3.15;;
70052;SDS011;57398;52.032;4.376;2023-02-28T01:34:47;6.53;;;3.27;;
70052;SDS011;57398;52.032;4.376;2023-02-28T01:37:35;7.82;;;3.70;;
70052;SDS011;57398;52.032;4.376;2023-02-28T01:40:24;7.40;;;3.80;;
70052;SDS011;57398;52.032;4.376;2023-02-28T01:43:16;8.27;;;3.80;;
70052;SDS011;57398;52.032;4.376;2023-02-28T01:46:09;7.85;;;3.50;;
70052;SDS011;57398;52.032;4.376;2023-02-28T01:49:01;6.80;;;3.53;;
70052;SDS011;57398;52.032;4.376;2023-02-28T01:51:53;6.82;;;3.35;;
70052;SDS011;57398;52.032;4.376;2023-02-28T01:54:44;8.30;;;4.18;;
70052;SDS011;57398;52.032;4.376;2023-02-28T01:57:38;7.88;;;3.20;;
70052;SDS011;57398;52.032;4.376;2023-02-28T02:00:30;7.55;;;3.78;;
70052;SDS011;57398;52.032;4.376;2023-02-28T02:03:19;8.80;;;3.63;;
70052;SDS011;57398;52.032;4.376;2023-02-28T02:06:08;7.40;;;3.70;;
70052;SDS011;57398;52.032;4.376;2023-02-28T02:08:56;8.82;;;4.07;;
70052;SDS011;57398;52.032;4.376;2023-02-28T02:11:44;9.13;;;3.95;;
70052;SDS011;57398;52.032;4.376;2023-02-28T02:14:42;7.80;;;3.97;;
70052;SDS011;57398;52.032;4.376;2023-02-28T02:17:38;7.40;;;3.87;;
70052;SDS011;57398;52.032;4.376;2023-02-28T02:24:17;9.13;;;3.90;;
70052;SDS011;57398;52.032;4.376;2023-02-28T02:27:33;7.22;;;3.85;;
70052;SDS011;57398;52.032;4.376;2023-02-28T02:30:45;10.27;;;3.92;;
70052;SDS011;57398;52.032;4.376;2023-02-28T02:34:03;9.13;;;4.13;;
70052;SDS011;57398;52.032;4.376;2023-02-28T02:37:14;8.23;;;3.95;;
70052;SDS011;57398;52.032;4.376;2023-02-28T02:40:11;8.77;;;4.10;;
70052;SDS011;57398;52.032;4.376;2023-02-28T02:43:03;10.57;;;4.53;;
70052;SDS011;57398;52.032;4.376;2023-02-28T02:45:56;7.50;;;3.78;;
70052;SDS011;57398;52.032;4.376;2023-02-28T02:48:49;8.77;;;4.40;;
70052;SDS011;57398;52.032;4.376;2023-02-28T02:51:44;7.70;;;4.25;;
70052;SDS011;57398;52.032;4.376;2023-02-28T02:54:35;10.68;;;4.20;;
70052;SDS011;57398;52.032;4.376;2023-02-28T02:57:27;6.88;;;3.80;;
70052;SDS011;57398;52.032;4.376;2023-02-28T03:00:22;8.35;;;4.07;;
70052;SDS011;57398;52.032;4.376;2023-02-28T03:03:13;8.17;;;3.97;;
70052;SDS011;57398;52.032;4.376;2023-02-28T03:06:07;8.32;;;4.30;;
70052;SDS011;57398;52.032;4.376;2023-02-28T03:08:56;8.82;;;4.00;;
70052;SDS011;57398;52.032;4.376;2023-02-28T03:11:44;7.75;;;4.00;;
70052;SDS011;57398;52.032;4.376;2023-02-28T03:14:36;8.77;;;4.32;;
70052;SDS011;57398;52.032;4.376;2023-02-28T03:17:37;8.17;;;4.17;;
70052;SDS011;57398;52.032;4.376;2023-02-28T03:20:49;8.05;;;3.90;;
70052;SDS011;57398;52.032;4.376;2023-02-28T03:23:48;7.70;;;3.97;;
70052;SDS011;57398;52.032;4.376;2023-02-28T03:26:45;7.15;;;4.05;;
70052;SDS011;57398;52.032;4.376;2023-02-28T03:29:41;9.23;;;4.18;;
70052;SDS011;57398;52.032;4.376;2023-02-28T03:32:35;8.77;;;4.53;;
70052;SDS011;57398;52.032;4.376;2023-02-28T03:35:28;8.32;;;4.20;;
70052;SDS011;57398;52.032;4.376;2023-02-28T03:38:20;11.02;;;4.97;;
70052;SDS011;57398;52.032;4.376;2023-02-28T03:41:14;9.32;;;4.28;;
70052;SDS011;57398;52.032;4.376;2023-02-28T03:44:10;7.97;;;4.65;;
70052;SDS011;57398;52.032;4.376;2023-02-28T03:47:03;7.40;;;4.33;;
70052;SDS011;57398;52.032;4.376;2023-02-28T03:49:57;12.40;;;4.70;;
70052;SDS011;57398;52.032;4.376;2023-02-28T03:52:49;9.95;;;4.95;;
70052;SDS011;57398;52.032;4.376;2023-02-28T03:55:42;10.00;;;4.68;;
70052;SDS011;57398;52.032;4.376;2023-02-28T03:58:35;9.77;;;4.75;;
70052;SDS011;57398;52.032;4.376;2023-02-28T04:01:31;9.23;;;4.40;;
70052;SDS011;57398;52.032;4.376;2023-02-28T04:04:24;9.05;;;4.68;;
70052;SDS011;57398;52.032;4.376;2023-02-28T04:07:12;9.63;;;4.20;;
70052;SDS011;57398;52.032;4.376;2023-02-28T04:10:00;12.68;;;4.80;;
70052;SDS011;57398;52.032;4.376;2023-02-28T04:12:48;10.88;;;4.70;;
70052;SDS011;57398;52.032;4.376;2023-02-28T04:15:36;10.97;;;4.67;;
70052;SDS011;57398;52.032;4.376;2023-02-28T04:18:26;12.85;;;4.93;;
70052;SDS011;57398;52.032;4.376;2023-02-28T04:21:14;12.63;;;5.30;;
70052;SDS011;57398;52.032;4.376;2023-02-28T04:24:02;10.70;;;5.25;;
70052;SDS011;57398;52.032;4.376;2023-02-28T04:26:52;10.55;;;4.90;;
70052;SDS011;57398;52.032;4.376;2023-02-28T04:29:42;10.13;;;4.97;;
70052;SDS011;57398;52.032;4.376;2023-02-28T04:32:31;13.50;;;5.93;;
70052;SDS011;57398;52.032;4.376;2023-02-28T04:35:20;10.25;;;5.50;;
70052;SDS011;57398;52.032;4.376;2023-02-28T04:38:09;11.55;;;6.07;;
70052;SDS011;57398;52.032;4.376;2023-02-28T04:40:57;11.27;;;5.90;;
70052;SDS011;57398;52.032;4.376;2023-02-28T04:43:45;13.33;;;5.70;;
70052;SDS011;57398;52.032;4.376;2023-02-28T04:46:34;10.13;;;5.30;;
70052;SDS011;57398;52.032;4.376;2023-02-28T04:49:22;15.43;;;6.15;;
70052;SDS011;57398;52.032;4.376;2023-02-28T04:52:11;13.02;;;5.60;;
70052;SDS011;57398;52.032;4.376;2023-02-28T04:54:59;13.45;;;5.78;;
70052;SDS011;57398;52.032;4.376;2023-02-28T04:57:48;11.50;;;5.90;;
70052;SDS011;57398;52.032;4.376;2023-02-28T05:00:36;12.25;;;5.68;;
70052;SDS011;57398;52.032;4.376;2023-02-28T05:03:24;12.88;;;6.88;;
70052;SDS011;57398;52.032;4.376;2023-02-28T05:06:13;11.65;;;5.88;;
70052;SDS011;57398;52.032;4.376;2023-02-28T05:09:03;16.05;;;6.60;;
70052;SDS011;57398;52.032;4.376;2023-02-28T05:11:51;13.20;;;6.37;;
70052;SDS011;57398;52.032;4.376;2023-02-28T05:14:39;13.50;;;6.85;;
70052;SDS011;57398;52.032;4.376;2023-02-28T05:17:27;17.35;;;7.07;;
70052;SDS011;57398;52.032;4.376;2023-02-28T05:20:16;12.85;;;6.55;;
70052;SDS011;57398;52.032;4.376;2023-02-28T05:23:05;13.25;;;6.78;;
70052;SDS011;57398;52.032;4.376;2023-02-28T05:25:54;14.83;;;6.90;;
70052;SDS011;57398;52.032;4.376;2023-02-28T05:28:43;16.67;;;5.78;;
70052;SDS011;57398;52.032;4.376;2023-02-28T05:31:31;13.93;;;6.00;;
70052;SDS011;57398;52.032;4.376;2023-02-28T05:34:19;14.88;;;6.10;;
70052;SDS011;57398;52.032;4.376;2023-02-28T05:37:11;12.20;;;5.68;;
70052;SDS011;57398;52.032;4.376;2023-02-28T05:40:00;12.97;;;6.03;;
70052;SDS011;57398;52.032;4.376;2023-02-28T05:42:53;13.13;;;5.95;;
70052;SDS011;57398;52.032;4.376;2023-02-28T05:45:42;13.65;;;5.65;;
70052;SDS011;57398;52.032;4.376;2023-02-28T05:48:30;13.93;;;6.20;;
70052;SDS011;57398;52.032;4.376;2023-02-28T05:51:18;11.10;;;6.05;;
70052;SDS011;57398;52.032;4.376;2023-02-28T05:54:06;13.70;;;6.07;;
70052;SDS011;57398;52.032;4.376;2023-02-28T05:56:55;13.50;;;5.65;;
70052;SDS011;57398;52.032;4.376;2023-02-28T05:59:44;15.73;;;6.05;;
70052;SDS011;57398;52.032;4.376;2023-02-28T06:02:32;12.40;;;5.57;;
70052;SDS011;57398;52.032;4.376;2023-02-28T06:05:20;11.50;;;5.50;;
70052;SDS011;57398;52.032;4.376;2023-02-28T06:08:09;11.07;;;5.43;;
70052;SDS011;57398;52.032;4.376;2023-02-28T06:10:57;12.48;;;5.45;;
70052;SDS011;57398;52.032;4.376;2023-02-28T06:13:45;11.05;;;5.57;;
70052;SDS011;57398;52.032;4.376;2023-02-28T06:16:34;11.38;;;5.35;;
70052;SDS011;57398;52.032;4.376;2023-02-28T06:19:23;12.68;;;5.30;;
70052;SDS011;57398;52.032;4.376;2023-02-28T06:22:12;11.93;;;5.63;;
70052;SDS011;57398;52.032;4.376;2023-02-28T06:25:00;13.18;;;5.22;;
70052;SDS011;57398;52.032;4.376;2023-02-28T06:27:48;10.68;;;4.88;;
70052;SDS011;57398;52.032;4.376;2023-02-28T06:30:36;13.15;;;5.00;;
70052;SDS011;57398;52.032;4.376;2023-02-28T06:33:26;11.90;;;5.65;;
70052;SDS011;57398;52.032;4.376;2023-02-28T06:36:14;12.03;;;5.33;;
70052;SDS011;57398;52.032;4.376;2023-02-28T06:39:04;12.38;;;5.93;;
70052;SDS011;57398;52.032;4.376;2023-02-28T06:41:53;11.40;;;5.13;;
70052;SDS011;57398;52.032;4.376;2023-02-28T06:44:42;11.63;;;5.45;;
70052;SDS011;57398;52.032;4.376;2023-02-28T06:47:30;12.63;;;5.07;;
70052;SDS011;57398;52.032;4.376;2023-02-28T06:50:20;10.97;;;5.00;;
70052;SDS011;57398;52.032;4.376;2023-02-28T06:53:08;11.98;;;5.18;;
70052;SDS011;57398;52.032;4.376;2023-02-28T06:55:56;13.00;;;6.05;;
70052;SDS011;57398;52.032;4.376;2023-02-28T06:58:45;13.13;;;6.00;;
70052;SDS011;57398;52.032;4.376;2023-02-28T07:01:34;11.70;;;5.50;;
70052;SDS011;57398;52.032;4.376;2023-02-28T07:04:22;11.40;;;5.67;;
70052;SDS011;57398;52.032;4.376;2023-02-28T07:07:12;15.15;;;5.35;;
70052;SDS011;57398;52.032;4.376;2023-02-28T07:10:00;11.40;;;4.85;;
70052;SDS011;57398;52.032;4.376;2023-02-28T07:12:48;9.65;;;4.57;;
70052;SDS011;57398;52.032;4.376;2023-02-28T07:15:36;10.10;;;4.88;;
70052;SDS011;57398;52.032;4.376;2023-02-28T07:18:28;8.90;;;4.13;;
70052;SDS011;57398;52.032;4.376;2023-02-28T07:21:16;9.48;;;3.90;;
70052;SDS011;57398;52.032;4.376;2023-02-28T07:24:06;8.18;;;3.75;;
70052;SDS011;57398;52.032;4.376;2023-02-28T07:26:54;8.32;;;3.67;;
70052;SDS011;57398;52.032;4.376;2023-02-28T07:29:42;7.47;;;3.28;;
70052;SDS011;57398;52.032;4.376;2023-02-28T07:32:30;6.43;;;3.40;;
70052;SDS011;57398;52.032;4.376;2023-02-28T07:35:18;8.13;;;4.20;;
70052;SDS011;57398;52.032;4.376;2023-02-28T07:38:06;8.77;;;4.20;;
70052;SDS011;57398;52.032;4.376;2023-02-28T07:40:56;7.60;;;4.15;;
70052;SDS011;57398;52.032;4.376;2023-02-28T07:43:44;10.98;;;4.07;;
70052;SDS011;57398;52.032;4.376;2023-02-28T07:46:32;7.90;;;3.90;;
70052;SDS011;57398;52.032;4.376;2023-02-28T07:49:23;9.18;;;4.40;;
70052;SDS011;57398;52.032;4.376;2023-02-28T07:52:11;8.02;;;4.22;;
70052;SDS011;57398;52.032;4.376;2023-02-28T07:54:59;8.18;;;4.30;;
70052;SDS011;57398;52.032;4.376;2023-02-28T07:57:49;9.68;;;4.30;;
70052;SDS011;57398;52.032;4.376;2023-02-28T08:00:37;8.00;;;4.50;;
70052;SDS011;57398;52.032;4.376;2023-02-28T08:03:25;22.30;;;10.25;;
70052;SDS011;57398;52.032;4.376;2023-02-28T08:06:16;17.42;;;8.07;;
70052;SDS011;57398;52.032;4.376;2023-02-28T08:09:06;11.65;;;5.72;;
70052;SDS011;57398;52.032;4.376;2023-02-28T08:11:55;12.52;;;5.10;;
70052;SDS011;57398;52.032;4.376;2023-02-28T08:14:45;9.63;;;4.90;;
70052;SDS011;57398;52.032;4.376;2023-02-28T08:17:33;11.38;;;5.18;;
70052;SDS011;57398;52.032;4.376;2023-02-28T08:20:21;11.48;;;4.82;;
70052;SDS011;57398;52.032;4.376;2023-02-28T08:23:09;9.75;;;5.22;;
70052;SDS011;57398;52.032;4.376;2023-02-28T08:25:58;11.75;;;5.57;;
70052;SDS011;57398;52.032;4.376;2023-02-28T08:28:46;11.63;;;5.47;;
70052;SDS011;57398;52.032;4.376;2023-02-28T08:31:35;11.82;;;5.65;;
70052;SDS011;57398;52.032;4.376;2023-02-28T08:34:25;11.65;;;5.60;;
70052;SDS011;57398;52.032;4.376;2023-02-28T08:37:13;14.32;;;5.75;;
70052;SDS011;57398;52.032;4.376;2023-02-28T08:40:02;10.10;;;5.45;;
70052;SDS011;57398;52.032;4.376;2023-02-28T08:42:50;11.43;;;5.60;;
70052;SDS011;57398;52.032;4.376;2023-02-28T08:45:38;10.88;;;5.88;;
70052;SDS011;57398;52.032;4.376;2023-02-28T08:48:29;11.88;;;5.70;;
70052;SDS011;57398;52.032;4.376;2023-02-28T08:51:18;11.45;;;5.50;;
70052;SDS011;57398;52.032;4.376;2023-02-28T08:54:13;11.77;;;5.35;;
70052;SDS011;57398;52.032;4.376;2023-02-28T08:57:02;11.90;;;5.80;;
70052;SDS011;57398;52.032;4.376;2023-02-28T08:59:51;10.60;;;5.05;;
70052;SDS011;57398;52.032;4.376;2023-02-28T09:02:39;10.00;;;4.78;;
70052;SDS011;57398;52.032;4.376;2023-02-28T09:05:30;10.68;;;4.95;;
70052;SDS011;57398;52.032;4.376;2023-02-28T09:08:18;11.30;;;5.40;;
70052;SDS011;57398;52.032;4.376;2023-02-28T09:11:07;11.57;;;5.20;;
70052;SDS011;57398;52.032;4.376;2023-02-28T09:13:55;16.23;;;7.72;;
70052;SDS011;57398;52.032;4.376;2023-02-28T09:16:44;12.13;;;5.57;;
70052;SDS011;57398;52.032;4.376;2023-02-28T09:19:32;12.45;;;5.65;;
70052;SDS011;57398;52.032;4.376;2023-02-28T09:22:21;11.85;;;5.22;;
70052;SDS011;57398;52.032;4.376;2023-02-28T09:25:09;10.83;;;5.03;;
70052;SDS011;57398;52.032;4.376;2023-02-28T09:27:57;12.90;;;5.22;;
70052;SDS011;57398;52.032;4.376;2023-02-28T09:30:46;12.70;;;5.45;;
70052;SDS011;57398;52.032;4.376;2023-02-28T09:33:36;11.07;;;5.45;;
70052;SDS011;57398;52.032;4.376;2023-02-28T09:36:25;11.02;;;5.07;;
70052;SDS011;57398;52.032;4.376;2023-02-28T09:39:30;8.80;;;4.30;;
70052;SDS011;57398;52.032;4.376;2023-02-28T09:42:21;9.43;;;4.63;;
70052;SDS011;57398;52.032;4.376;2023-02-28T09:45:15;8.98;;;4.75;;
70052;SDS011;57398;52.032;4.376;2023-02-28T09:48:11;9.40;;;4.82;;
70052;SDS011;57398;52.032;4.376;2023-02-28T09:51:04;11.20;;;4.65;;
70052;SDS011;57398;52.032;4.376;2023-02-28T09:53:57;10.77;;;3.90;;
70052;SDS011;57398;52.032;4.376;2023-02-28T09:56:50;8.32;;;3.67;;
70052;SDS011;57398;52.032;4.376;2023-02-28T09:59:48;7.93;;;4.00;;
70052;SDS011;57398;52.032;4.376;2023-02-28T10:02:59;7.78;;;3.80;;
70052;SDS011;57398;52.032;4.376;2023-02-28T10:05:56;7.93;;;3.70;;
70052;SDS011;57398;52.032;4.376;2023-02-28T10:08:52;8.67;;;3.10;;
70052;SDS011;57398;52.032;4.376;2023-02-28T10:11:48;6.35;;;3.10;;
70052;SDS011;57398;52.032;4.376;2023-02-28T10:14:40;8.05;;;3.20;;
70052;SDS011;57398;52.032;4.376;2023-02-28T10:17:35;8.13;;;3.60;;
70052;SDS011;57398;52.032;4.376;2023-02-28T10:20:41;8.15;;;3.65;;
70052;SDS011;57398;52.032;4.376;2023-02-28T10:23:32;9.83;;;4.30;;
70052;SDS011;57398;52.032;4.376;2023-02-28T10:26:24;8.30;;;4.22;;
70052;SDS011;57398;52.032;4.376;2023-02-28T10:29:17;8.18;;;4.10;;
70052;SDS011;57398;52.032;4.376;2023-02-28T10:32:05;9.50;;;4.68;;
70052;SDS011;57398;52.032;4.376;2023-02-28T10:34:55;9.45;;;4.32;;
70052;SDS011;57398;52.032;4.376;2023-02-28T10:37:47;7.40;;;3.70;;
70052;SDS011;57398;52.032;4.376;2023-02-28T10:40:37;8.68;;;3.80;;
70052;SDS011;57398;52.032;4.376;2023-02-28T10:43:25;7.50;;;3.45;;
70052;SDS011;57398;52.032;4.376;2023-02-28T10:46:15;8.25;;;3.85;;
70052;SDS011;57398;52.032;4.376;2023-02-28T10:49:14;6.82;;;3.25;;
70052;SDS011;57398;52.032;4.376;2023-02-28T10:52:08;7.20;;;3.43;;
70052;SDS011;57398;52.032;4.376;2023-02-28T10:54:58;7.78;;;3.67;;
70052;SDS011;57398;52.032;4.376;2023-02-28T10:58:02;6.53;;;3.63;;
70052;SDS011;57398;52.032;4.376;2023-02-28T11:00:50;8.65;;;3.75;;
70052;SDS011;57398;52.032;4.376;2023-02-28T11:03:41;6.95;;;3.35;;
70052;SDS011;57398;52.032;4.376;2023-02-28T11:06:29;5.23;;;2.77;;
70052;SDS011;57398;52.032;4.376;2023-02-28T11:09:20;6.40;;;3.10;;
70052;SDS011;57398;52.032;4.376;2023-02-28T11:12:19;5.88;;;2.85;;
70052;SDS011;57398;52.032;4.376;2023-02-28T11:15:18;6.13;;;3.25;;
70052;SDS011;57398;52.032;4.376;2023-02-28T11:18:18;7.97;;;3.33;;
70052;SDS011;57398;52.032;4.376;2023-02-28T11:21:16;5.93;;;3.20;;
70052;SDS011;57398;52.032;4.376;2023-02-28T11:24:14;8.00;;;3.53;;
70052;SDS011;57398;52.032;4.376;2023-02-28T11:27:18;6.35;;;2.97;;
70052;SDS011;57398;52.032;4.376;2023-02-28T11:30:27;6.10;;;3.53;;
70052;SDS011;57398;52.032;4.376;2023-02-28T11:33:22;6.40;;;3.33;;
70052;SDS011;57398;52.032;4.376;2023-02-28T11:36:12;6.63;;;3.57;;
70052;SDS011;57398;52.032;4.376;2023-02-28T11:39:09;7.15;;;3.33;;
70052;SDS011;57398;52.032;4.376;2023-02-28T11:42:09;6.85;;;3.53;;
70052;SDS011;57398;52.032;4.376;2023-02-28T11:45:15;6.70;;;2.90;;
70052;SDS011;57398;52.032;4.376;2023-02-28T11:48:11;7.18;;;3.25;;
70052;SDS011;57398;52.032;4.376;2023-02-28T11:51:08;5.80;;;3.53;;
70052;SDS011;57398;52.032;4.376;2023-02-28T11:54:12;7.07;;;3.58;;
70052;SDS011;57398;52.032;4.376;2023-02-28T11:57:17;6.78;;;3.47;;
70052;SDS011;57398;52.032;4.376;2023-02-28T12:00:17;7.03;;;3.63;;
70052;SDS011;57398;52.032;4.376;2023-02-28T12:03:19;6.32;;;3.45;;
70052;SDS011;57398;52.032;4.376;2023-02-28T12:06:16;6.47;;;3.47;;
70052;SDS011;57398;52.032;4.376;2023-02-28T12:09:14;5.70;;;3.13;;
70052;SDS011;57398;52.032;4.376;2023-02-28T12:12:14;5.10;;;3.00;;
70052;SDS011;57398;52.032;4.376;2023-02-28T12:15:20;7.78;;;3.58;;
70052;SDS011;57398;52.032;4.376;2023-02-28T12:18:27;6.38;;;3.22;;
70052;SDS011;57398;52.032;4.376;2023-02-28T12:21:39;5.37;;;3.00;;
70052;SDS011;57398;52.032;4.376;2023-02-28T12:24:52;5.97;;;3.20;;
70052;SDS011;57398;52.032;4.376;2023-02-28T12:27:47;5.32;;;2.53;;
70052;SDS011;57398;52.032;4.376;2023-02-28T12:30:37;4.95;;;2.40;;
70052;SDS011;57398;52.032;4.376;2023-02-28T12:33:32;5.22;;;2.67;;
70052;SDS011;57398;52.032;4.376;2023-02-28T12:36:23;5.07;;;2.77;;
70052;SDS011;57398;52.032;4.376;2023-02-28T12:39:14;5.18;;;2.70;;
70052;SDS011;57398;52.032;4.376;2023-02-28T12:42:11;5.38;;;2.75;;
70052;SDS011;57398;52.032;4.376;2023-02-28T12:45:06;5.65;;;2.78;;
70052;SDS011;57398;52.032;4.376;2023-02-28T12:47:59;6.57;;;2.70;;
70052;SDS011;57398;52.032;4.376;2023-02-28T12:50:51;5.97;;;2.90;;
70052;SDS011;57398;52.032;4.376;2023-02-28T12:53:43;5.47;;;2.65;;
70052;SDS011;57398;52.032;4.376;2023-02-28T12:56:42;5.00;;;2.30;;
70052;SDS011;57398;52.032;4.376;2023-02-28T12:59:37;6.22;;;3.08;;
70052;SDS011;57398;52.032;4.376;2023-02-28T13:02:44;6.50;;;3.28;;
70052;SDS011;57398;52.032;4.376;2023-02-28T13:05:55;6.23;;;3.27;;
70052;SDS011;57398;52.032;4.376;2023-02-28T13:11:57;4.38;;;2.13;;
70052;SDS011;57398;52.032;4.376;2023-02-28T13:14:47;5.35;;;2.40;;
70052;SDS011;57398;52.032;4.376;2023-02-28T13:17:36;6.03;;;2.92;;
70052;SDS011;57398;52.032;4.376;2023-02-28T13:20:33;5.80;;;3.20;;
70052;SDS011;57398;52.032;4.376;2023-02-28T13:23:37;5.50;;;2.40;;
70052;SDS011;57398;52.032;4.376;2023-02-28T13:29:57;5.22;;;2.45;;
70052;SDS011;57398;52.032;4.376;2023-02-28T13:32:45;5.90;;;2.90;;
70052;SDS011;57398;52.032;4.376;2023-02-28T13:35:34;6.03;;;2.70;;
70052;SDS011;57398;52.032;4.376;2023-02-28T13:38:35;5.13;;;2.40;;
70052;SDS011;57398;52.032;4.376;2023-02-28T13:41:44;5.65;;;2.55;;
70052;SDS011;57398;52.032;4.376;2023-02-28T13:44:41;4.80;;;2.42;;
70052;SDS011;57398;52.032;4.376;2023-02-28T13:48:16;5.13;;;2.53;;
70052;SDS011;57398;52.032;4.376;2023-02-28T13:54:31;6.40;;;3.05;;
70052;SDS011;57398;52.032;4.376;2023-02-28T13:57:30;5.55;;;2.40;;
70052;SDS011;57398;52.032;4.376;2023-02-28T14:00:34;6.20;;;2.38;;
70052;SDS011;57398;52.032;4.376;2023-02-28T14:03:41;4.90;;;2.65;;
70052;SDS011;57398;52.032;4.376;2023-02-28T14:06:46;5.60;;;2.67;;
70052;SDS011;57398;52.032;4.376;2023-02-28T14:09:37;6.80;;;2.67;;
70052;SDS011;57398;52.032;4.376;2023-02-28T14:18:55;6.55;;;3.10;;
70052;SDS011;57398;52.032;4.376;2023-02-28T14:21:51;6.27;;;2.83;;
70052;SDS011;57398;52.032;4.376;2023-02-28T14:24:59;5.72;;;2.83;;
70052;SDS011;57398;52.032;4.376;2023-02-28T14:27:58;5.97;;;3.03;;
70052;SDS011;57398;52.032;4.376;2023-02-28T14:31:00;5.75;;;3.00;;
70052;SDS011;57398;52.032;4.376;2023-02-28T14:34:02;6.80;;;3.00;;
70052;SDS011;57398;52.032;4.376;2023-02-28T14:37:04;5.10;;;2.60;;
70052;SDS011;57398;52.032;4.376;2023-02-28T14:39:54;6.95;;;2.70;;
70052;SDS011;57398;52.032;4.376;2023-02-28T14:42:47;6.28;;;2.97;;
70052;SDS011;57398;52.032;4.376;2023-02-28T14:45:42;4.95;;;2.38;;
70052;SDS011;57398;52.032;4.376;2023-02-28T14:48:30;7.15;;;2.97;;
70052;SDS011;57398;52.032;4.376;2023-02-28T14:51:20;6.17;;;2.80;;
70052;SDS011;57398;52.032;4.376;2023-02-28T14:54:12;5.00;;;2.28;;
70052;SDS011;57398;52.032;4.376;2023-02-28T14:57:03;5.75;;;2.88;;
70052;SDS011;57398;52.032;4.376;2023-02-28T14:59:59;5.72;;;2.30;;
70052;SDS011;57398;52.032;4.376;2023-02-28T15:02:50;7.10;;;3.03;;
70052;SDS011;57398;52.032;4.376;2023-02-28T15:05:39;5.20;;;2.37;;
70052;SDS011;57398;52.032;4.376;2023-02-28T15:08:29;6.10;;;2.80;;
70052;SDS011;57398;52.032;4.376;2023-02-28T15:11:21;4.28;;;2.08;;
70052;SDS011;57398;52.032;4.376;2023-02-28T15:14:13;6.07;;;2.60;;
70052;SDS011;57398;52.032;4.376;2023-02-28T15:17:07;6.55;;;2.80;;
70052;SDS011;57398;52.032;4.376;2023-02-28T15:19:59;6.07;;;3.20;;
70052;SDS011;57398;52.032;4.376;2023-02-28T15:22:48;5.85;;;2.72;;
70052;SDS011;57398;52.032;4.376;2023-02-28T15:25:41;6.88;;;3.10;;
70052;SDS011;57398;52.032;4.376;2023-02-28T15:28:29;5.03;;;2.60;;
70052;SDS011;57398;52.032;4.376;2023-02-28T15:31:19;6.10;;;2.53;;
70052;SDS011;57398;52.032;4.376;2023-02-28T15:34:15;5.33;;;2.50;;
70052;SDS011;57398;52.032;4.376;2023-02-28T15:40:15;5.13;;;2.33;;
70052;SDS011;57398;52.032;4.376;2023-02-28T15:43:06;5.35;;;2.20;;
70052;SDS011;57398;52.032;4.376;2023-02-28T15:46:01;5.40;;;2.50;;
70052;SDS011;57398;52.032;4.376;2023-02-28T15:48:52;5.30;;;2.23;;
70052;SDS011;57398;52.032;4.376;2023-02-28T15:51:42;5.50;;;2.60;;
70052;SDS011;57398;52.032;4.376;2023-02-28T15:54:32;6.50;;;2.70;;
70052;SDS011;57398;52.032;4.376;2023-02-28T15:57:22;5.10;;;2.10;;
70052;SDS011;57398;52.032;4.376;2023-02-28T16:00:15;5.10;;;2.47;;
70052;SDS011;57398;52.032;4.376;2023-02-28T16:03:22;6.07;;;2.50;;
70052;SDS011;57398;52.032;4.376;2023-02-28T16:09:31;6.30;;;2.92;;
70052;SDS011;57398;52.032;4.376;2023-02-28T16:12:21;5.93;;;2.38;;
70052;SDS011;57398;52.032;4.376;2023-02-28T16:15:19;5.45;;;2.63;;
70052;SDS011;57398;52.032;4.376;2023-02-28T16:18:10;4.50;;;2.10;;
70052;SDS011;57398;52.032;4.376;2023-02-28T16:20:59;5.68;;;2.80;;
70052;SDS011;57398;52.032;4.376;2023-02-28T16:23:47;5.30;;;2.85;;
70052;SDS011;57398;52.032;4.376;2023-02-28T16:26:35;4.55;;;1.95;;
70052;SDS011;57398;52.032;4.376;2023-02-28T16:29:26;7.22;;;3.28;;
70052;SDS011;57398;52.032;4.376;2023-02-28T16:32:18;5.80;;;2.70;;
70052;SDS011;57398;52.032;4.376;2023-02-28T16:35:09;8.40;;;3.30;;
70052;SDS011;57398;52.032;4.376;2023-02-28T16:37:57;5.97;;;3.10;;
70052;SDS011;57398;52.032;4.376;2023-02-28T16:40:46;6.38;;;3.28;;
70052;SDS011;57398;52.032;4.376;2023-02-28T16:43:36;6.25;;;3.08;;
70052;SDS011;57398;52.032;4.376;2023-02-28T16:46:27;5.70;;;2.60;;
70052;SDS011;57398;52.032;4.376;2023-02-28T16:49:20;6.13;;;2.90;;
70052;SDS011;57398;52.032;4.376;2023-02-28T16:52:08;4.82;;;2.03;;
70052;SDS011;57398;52.032;4.376;2023-02-28T16:54:57;6.72;;;2.78;;
70052;SDS011;57398;52.032;4.376;2023-02-28T16:57:47;5.50;;;2.38;;
70052;SDS011;57398;52.032;4.376;2023-02-28T17:00:39;6.80;;;2.53;;
70052;SDS011;57398;52.032;4.376;2023-02-28T17:03:28;5.63;;;2.33;;
70052;SDS011;57398;52.032;4.376;2023-02-28T17:06:22;6.50;;;2.70;;
70052;SDS011;57398;52.032;4.376;2023-02-28T17:09:16;6.88;;;2.83;;
70052;SDS011;57398;52.032;4.376;2023-02-28T17:12:07;6.07;;;3.08;;
70052;SDS011;57398;52.032;4.376;2023-02-28T17:14:55;7.27;;;3.17;;
70052;SDS011;57398;52.032;4.376;2023-02-28T17:17:44;7.22;;;3.40;;
70052;SDS011;57398;52.032;4.376;2023-02-28T17:20:33;8.15;;;3.40;;
70052;SDS011;57398;52.032;4.376;2023-02-28T17:23:23;8.27;;;2.70;;
70052;SDS011;57398;52.032;4.376;2023-02-28T17:26:12;7.32;;;3.63;;
70052;SDS011;57398;52.032;4.376;2023-02-28T17:29:01;7.33;;;3.20;;
70052;SDS011;57398;52.032;4.376;2023-02-28T17:31:49;6.03;;;2.67;;
70052;SDS011;57398;52.032;4.376;2023-02-28T17:34:38;6.78;;;3.35;;
70052;SDS011;57398;52.032;4.376;2023-02-28T17:37:26;7.95;;;3.63;;
70052;SDS011;57398;52.032;4.376;2023-02-28T17:40:16;7.82;;;3.80;;
70052;SDS011;57398;52.032;4.376;2023-02-28T17:43:06;8.50;;;3.43;;